Time;durP1;ratioP1;P1;durP2;ratioP2;P2;SDS_P1;SDS_P2;PMS_P1;PMS_P2;Temp;Humidity;BMP_temperature;BMP_pressure;BME280_temperature;BME280_humidity;BME280_pressure;Samples;Min_cycle;Max_cycle;Signal;HPM_P1;HPM_P2
2023/06/21 00:00:45;;;;;;;;;4.75;4.50;;;;;26.38;48.29;100854.00;5001662;28;46833;-42
2023/06/21 00:03:11;;;;;;;;;6.00;6.00;;;;;26.40;48.32;100864.53;4998493;28;45044;-40
2023/06/21 00:05:38;;;;;;;;;8.50;5.75;;;;;26.39;47.90;100862.81;4998747;28;45164;-39
2023/06/21 00:08:03;;;;;;;;;5.00;5.00;;;;;26.37;47.92;100857.63;4999483;28;45689;-40
2023/06/21 00:10:29;;;;;;;;;7.50;4.75;;;;;26.36;47.97;100860.41;5004139;28;45392;-39
2023/06/21 00:12:55;;;;;;;;;5.75;4.00;;;;;26.36;48.17;100852.44;5003622;28;44793;-40
2023/06/21 00:15:21;;;;;;;;;6.25;6.25;;;;;26.35;48.15;100856.06;5000780;28;44826;-37
2023/06/21 00:17:47;;;;;;;;;4.25;4.25;;;;;26.37;47.77;100859.44;4995278;28;45344;-45
2023/06/21 00:20:13;;;;;;;;;7.00;6.00;;;;;26.34;47.94;100852.56;4997925;28;45442;-41
2023/06/21 00:22:39;;;;;;;;;7.00;5.25;;;;;26.34;48.06;100865.00;4995595;28;45300;-45
2023/06/21 00:25:06;;;;;;;;;4.00;4.00;;;;;26.35;47.80;100858.72;4998941;28;45310;-48
2023/06/21 00:27:31;;;;;;;;;5.25;3.50;;;;;26.35;48.05;100854.22;4997511;28;45209;-41
2023/06/21 00:29:57;;;;;;;;;4.25;4.25;;;;;26.37;47.82;100856.78;4993380;28;48902;-40
2023/06/21 00:32:22;;;;;;;;;8.75;5.75;;;;;26.38;47.77;100853.16;4995343;28;45226;-40
2023/06/21 00:34:47;;;;;;;;;8.50;5.00;;;;;26.36;47.68;100849.78;4980384;28;45447;-40
2023/06/21 00:37:13;;;;;;;;;5.75;4.25;;;;;26.38;47.72;100858.47;4981383;28;45311;-39
2023/06/21 00:39:39;;;;;;;;;5.75;4.00;;;;;26.38;47.77;100863.78;4980772;28;46592;-39
2023/06/21 00:42:05;;;;;;;;;4.25;3.75;;;;;26.37;47.73;100862.09;4982055;28;45337;-40
2023/06/21 00:44:31;;;;;;;;;5.75;5.00;;;;;26.35;47.68;100853.41;4988430;28;45405;-39
2023/06/21 00:46:56;;;;;;;;;5.25;5.25;;;;;26.38;47.57;100858.47;4985337;28;45377;-39
2023/06/21 00:49:23;;;;;;;;;4.00;4.00;;;;;26.37;47.80;100854.97;4989563;28;46149;-39
2023/06/21 00:51:49;;;;;;;;;4.00;4.00;;;;;26.37;47.32;100854.97;4981587;28;45422;-39
2023/06/21 00:54:18;;;;;;;;;5.00;5.00;;;;;26.38;47.39;100863.78;4980829;28;45459;-39
2023/06/21 00:56:45;;;;;;;;;4.50;3.25;;;;;26.38;47.45;100867.28;4981662;28;45221;-39
2023/06/21 00:59:11;;;;;;;;;3.75;3.00;;;;;26.39;47.58;100871.63;4980794;28;45611;-39
2023/06/21 01:01:37;;;;;;;;;2.50;2.50;;;;;26.36;47.68;100865.72;4979492;28;45670;-39
2023/06/21 01:04:08;;;;;;;;;7.50;5.00;;;;;26.39;47.70;100865.47;4983811;28;45507;-39
2023/06/21 01:06:52;;;;;;;;;6.50;5.50;;;;;26.41;47.36;100874.16;4996241;28;45404;-39
2023/06/21 01:09:21;;;;;;;;;5.25;4.00;;;;;26.41;47.23;100884.78;4980827;28;46294;-39
2023/06/21 01:11:52;;;;;;;;;4.50;3.00;;;;;26.41;47.44;100886.59;4979447;28;45912;-38
2023/06/21 01:14:43;;;;;;;;;3.75;3.25;;;;;26.39;47.39;100887.56;4979543;28;45320;-39
2023/06/21 01:17:11;;;;;;;;;6.50;4.00;;;;;26.41;47.19;100891.94;4987816;28;45392;-39
2023/06/21 01:19:48;;;;;;;;;5.50;4.00;;;;;26.42;47.70;100901.59;4988144;28;46405;-41
2023/06/21 01:22:22;;;;;;;;;4.00;4.00;;;;;26.41;47.38;100903.38;4985804;28;45376;-39
2023/06/21 01:25:18;;;;;;;;;5.25;3.75;;;;;26.41;47.38;100908.69;4999218;28;45205;-39
2023/06/21 01:28:02;;;;;;;;;4.25;3.25;;;;;26.41;47.34;100910.53;4990615;28;45202;-39
2023/06/21 01:30:31;;;;;;;;;3.75;3.75;;;;;26.38;47.50;100906.31;4980062;28;47483;-39
2023/06/21 01:32:56;;;;;;;;;2.75;2.75;;;;;26.40;47.40;100901.72;4979569;28;45389;-39
2023/06/21 01:35:22;;;;;;;;;5.00;5.00;;;;;26.40;47.26;100904.38;4979118;28;45430;-39
2023/06/21 01:37:49;;;;;;;;;5.50;4.25;;;;;26.39;47.33;100910.66;4979377;28;45428;-39
2023/06/21 01:40:15;;;;;;;;;3.25;3.25;;;;;26.41;47.01;100911.34;4977851;28;48192;-39
2023/06/21 01:42:40;;;;;;;;;5.00;5.00;;;;;26.38;47.23;100911.63;4979654;28;45339;-39
2023/06/21 01:45:06;;;;;;;;;6.75;4.00;;;;;26.40;47.33;100917.66;4991572;28;45330;-39
2023/06/21 01:47:33;;;;;;;;;2.25;2.25;;;;;26.39;47.26;100915.97;4999812;28;45214;-38
2023/06/21 01:49:59;;;;;;;;;0.00;0.00;;;;;26.39;47.50;100923.94;4997844;28;46031;-39
2023/06/21 01:52:24;;;;;;;;;5.00;4.75;;;;;26.39;47.34;100926.59;5001173;28;45397;-40
2023/06/21 01:54:50;;;;;;;;;4.75;3.25;;;;;26.38;47.29;100924.91;4998620;28;44596;-39
2023/06/21 01:57:17;;;;;;;;;2.00;2.00;;;;;26.38;47.45;100933.72;4992928;28;44819;-41
2023/06/21 01:59:43;;;;;;;;;5.50;3.25;;;;;26.39;47.22;100943.38;4991133;28;45650;-40
2023/06/21 02:02:09;;;;;;;;;6.25;5.00;;;;;26.38;47.25;100943.50;4986359;28;45415;-40
2023/06/21 02:04:35;;;;;;;;;3.00;3.00;;;;;26.41;47.26;100943.25;4983092;28;45430;-41
2023/06/21 02:07:02;;;;;;;;;2.75;2.75;;;;;26.41;47.14;100947.72;4979121;28;45644;-40
2023/06/21 02:09:30;;;;;;;;;3.25;3.25;;;;;26.39;47.15;100951.34;4985577;28;45934;-40
2023/06/21 02:11:56;;;;;;;;;3.75;3.25;;;;;26.38;47.06;100949.66;4996699;28;45859;-39
2023/06/21 02:14:21;;;;;;;;;3.25;3.25;;;;;26.39;47.13;100950.53;4993876;28;45365;-42
2023/06/21 02:16:47;;;;;;;;;4.50;3.50;;;;;26.39;47.28;100948.69;4979679;28;45301;-40
2023/06/21 02:19:13;;;;;;;;;3.75;3.00;;;;;26.40;47.13;100944.25;4979000;28;47404;-39
2023/06/21 02:21:38;;;;;;;;;2.00;2.00;;;;;26.40;47.17;100938.94;4979289;28;57900;-39
2023/06/21 02:24:04;;;;;;;;;5.00;3.75;;;;;26.38;47.07;100943.50;4979935;28;45296;-39
2023/06/21 02:26:29;;;;;;;;;4.00;3.00;;;;;26.38;47.29;100940.84;5000134;28;45664;-39
2023/06/21 02:28:54;;;;;;;;;4.00;3.00;;;;;26.34;47.28;100936.72;4980346;28;45422;-40
2023/06/21 02:31:20;;;;;;;;;3.75;3.25;;;;;26.36;47.32;100938.28;4989256;28;45248;-40
2023/06/21 02:33:45;;;;;;;;;6.00;4.25;;;;;26.35;47.36;100938.44;4994385;28;45330;-40
2023/06/21 02:36:11;;;;;;;;;2.00;2.00;;;;;26.37;47.26;100933.84;4996126;28;47128;-40
2023/06/21 02:38:36;;;;;;;;;3.75;3.00;;;;;26.38;47.09;100935.53;4993869;28;45607;-42
2023/06/21 02:41:01;;;;;;;;;4.75;3.00;;;;;26.38;47.34;100936.38;4993605;28;57531;-40
2023/06/21 02:43:27;;;;;;;;;4.25;4.25;;;;;26.39;47.46;100934.56;4992876;28;45304;-40
2023/06/21 02:45:53;;;;;;;;;3.75;2.00;;;;;26.38;47.27;100932.88;4997908;28;45352;-42
2023/06/21 02:48:18;;;;;;;;;3.00;3.00;;;;;26.39;47.17;100934.56;4998604;28;45332;-43
2023/06/21 02:50:43;;;;;;;;;3.50;3.50;;;;;26.39;47.62;100934.56;4999583;28;44750;-41
2023/06/21 02:53:09;;;;;;;;;4.00;3.00;;;;;26.40;47.46;100941.59;4996495;28;45307;-41
2023/06/21 02:55:34;;;;;;;;;4.00;4.00;;;;;26.40;47.33;100944.25;4997789;28;45098;-40
2023/06/21 02:57:59;;;;;;;;;3.00;3.00;;;;;26.38;47.27;100943.50;4992446;28;55268;-41
2023/06/21 03:00:31;;;;;;;;;3.50;3.50;;;;;26.39;47.25;100945.22;4999995;28;47768;-39
2023/06/21 03:03:02;;;;;;;;;3.00;3.00;;;;;26.41;47.45;100942.41;4994565;28;45269;-40
2023/06/21 03:05:33;;;;;;;;;2.75;2.75;;;;;26.41;47.36;100945.06;4979600;28;45419;-40
2023/06/21 03:08:00;;;;;;;;;4.75;3.25;;;;;26.39;47.33;100948.69;4991139;28;46908;-40
2023/06/21 03:10:26;;;;;;;;;3.25;3.00;;;;;26.41;47.24;100955.69;4983332;28;45698;-39
2023/06/21 03:12:52;;;;;;;;;4.00;2.75;;;;;26.41;47.19;100958.34;4979578;28;45367;-43
2023/06/21 03:15:17;;;;;;;;;3.25;2.50;;;;;26.41;47.30;100953.88;4983997;28;45471;-41
2023/06/21 03:17:43;;;;;;;;;3.50;3.00;;;;;26.41;47.01;100956.53;4989347;28;46569;-40
2023/06/21 03:20:12;;;;;;;;;7.00;4.00;;;;;26.40;47.05;100949.56;4986193;28;45352;-40
2023/06/21 03:22:42;;;;;;;;;4.00;4.00;;;;;26.40;47.12;100957.53;4978617;28;45196;-39
2023/06/21 03:25:12;;;;;;;;;2.25;1.25;;;;;26.35;47.09;100951.72;4978122;28;45311;-40
2023/06/21 03:27:38;;;;;;;;;3.00;3.00;;;;;26.34;47.16;100958.00;4978894;28;45614;-40
2023/06/21 03:30:11;;;;;;;;;4.50;3.00;;;;;26.31;47.23;100958.22;4977514;28;45418;-39
2023/06/21 03:32:47;;;;;;;;;4.25;3.00;;;;;26.28;47.22;100950.50;4977320;28;45265;-39
2023/06/21 03:35:16;;;;;;;;;4.00;4.00;;;;;26.26;47.00;100960.41;4982096;28;45237;-39
2023/06/21 03:37:42;;;;;;;;;4.00;4.00;;;;;26.19;47.55;100960.88;4983642;28;47532;-39
2023/06/21 03:40:13;;;;;;;;;5.00;3.00;;;;;26.18;47.38;100964.50;4979985;28;45448;-39
2023/06/21 03:42:38;;;;;;;;;4.50;3.50;;;;;26.14;47.39;100967.50;4990966;28;45226;-38
2023/06/21 03:45:04;;;;;;;;;4.25;3.75;;;;;26.12;47.56;100975.59;4996310;28;44754;-39
2023/06/21 03:47:30;;;;;;;;;5.00;4.00;;;;;26.10;47.22;100982.00;5000035;28;45739;-39
2023/06/21 03:49:57;;;;;;;;;3.00;3.00;;;;;26.08;47.29;100990.03;4982013;28;45202;-39
2023/06/21 03:52:23;;;;;;;;;5.00;5.00;;;;;26.05;47.76;100992.97;4979956;28;45424;-40
2023/06/21 03:54:48;;;;;;;;;3.25;3.25;;;;;26.03;47.91;101003.69;4983588;28;45564;-39
2023/06/21 03:57:14;;;;;;;;;4.00;2.50;;;;;26.02;47.96;101012.59;4982418;28;65559;-39
2023/06/21 03:59:39;;;;;;;;;4.50;3.75;;;;;26.00;47.73;101005.72;4978553;28;45443;-39
2023/06/21 04:02:05;;;;;;;;;5.00;5.00;;;;;25.97;47.48;101014.78;4977987;28;45386;-39
2023/06/21 04:04:30;;;;;;;;;4.75;4.50;;;;;25.96;48.04;101018.41;4984084;28;45356;-39
2023/06/21 04:06:56;;;;;;;;;6.00;3.00;;;;;25.93;47.95;101008.00;4979191;28;45297;-40
2023/06/21 04:09:21;;;;;;;;;4.00;4.00;;;;;25.93;48.10;101019.50;4980791;28;45331;-40
2023/06/21 04:11:46;;;;;;;;;4.00;3.00;;;;;25.92;47.96;101023.09;4980913;28;45356;-41
2023/06/21 04:14:14;;;;;;;;;2.75;2.75;;;;;25.92;47.79;101028.41;4980794;28;45226;-38
2023/06/21 04:16:39;;;;;;;;;5.50;3.75;;;;;25.88;48.02;101026.09;4980389;28;45739;-39
2023/06/21 04:19:05;;;;;;;;;4.00;3.00;;;;;25.88;48.17;101032.25;4981957;28;45170;-41
2023/06/21 04:21:30;;;;;;;;;6.00;3.00;;;;;25.88;48.44;101042.03;4980863;28;45299;-40
2023/06/21 04:23:55;;;;;;;;;5.00;3.00;;;;;25.85;47.85;101043.09;4980845;28;55653;-39
2023/06/21 04:26:22;;;;;;;;;5.00;4.00;;;;;25.84;47.95;101043.22;4980469;28;48720;-39
2023/06/21 04:28:48;;;;;;;;;5.00;4.00;;;;;25.84;48.06;101045.88;4985452;28;45843;-39
2023/06/21 04:31:14;;;;;;;;;3.00;3.00;;;;;25.81;48.09;101057.59;4985279;28;45391;-39
2023/06/21 04:33:39;;;;;;;;;4.75;4.00;;;;;25.79;48.40;101054.19;4982536;28;45371;-40
2023/06/21 04:36:04;;;;;;;;;4.00;4.00;;;;;25.79;48.22;101056.84;4980447;28;45404;-40
2023/06/21 04:38:31;;;;;;;;;6.50;3.00;;;;;25.78;48.42;101063.13;4980048;28;45398;-40
2023/06/21 04:40:57;;;;;;;;;7.25;4.00;;;;;25.74;48.71;101061.66;4979513;28;45270;-40
2023/06/21 04:43:24;;;;;;;;;5.50;3.50;;;;;25.74;48.67;101077.59;4980346;28;45357;-40
2023/06/21 04:45:50;;;;;;;;;5.00;3.00;;;;;25.72;48.42;101085.66;4980676;28;46513;-40
2023/06/21 04:48:16;;;;;;;;;4.25;3.75;;;;;25.72;48.65;101090.13;4980170;28;45408;-39
2023/06/21 04:50:45;;;;;;;;;4.25;4.25;;;;;25.71;48.41;101105.19;4980005;28;45451;-42
2023/06/21 04:53:13;;;;;;;;;4.00;4.00;;;;;25.68;48.86;101092.16;4979759;28;45443;-41
2023/06/21 04:55:42;;;;;;;;;3.25;3.25;;;;;25.71;48.65;101094.56;4979883;28;47376;-42
2023/06/21 04:58:09;;;;;;;;;5.00;4.00;;;;;25.71;48.98;101099.03;4980440;28;45446;-41
2023/06/21 05:00:35;;;;;;;;;4.75;3.00;;;;;25.69;48.63;101091.19;4987536;28;45345;-41
2023/06/21 05:03:01;;;;;;;;;5.75;4.00;;;;;25.68;49.07;101099.25;4987806;28;45640;-41
2023/06/21 05:05:26;;;;;;;;;7.75;4.00;;;;;25.65;49.10;101096.81;4981495;28;46437;-40
2023/06/21 05:07:51;;;;;;;;;5.50;4.25;;;;;25.65;49.10;101104.78;4990981;28;45319;-41
2023/06/21 05:10:17;;;;;;;;;5.00;5.00;;;;;25.64;49.08;101109.25;4989946;28;45385;-41
2023/06/21 05:12:42;;;;;;;;;7.50;4.75;;;;;25.61;49.36;101106.81;4983427;28;45214;-41
2023/06/21 05:15:08;;;;;;;;;5.00;5.00;;;;;25.61;50.03;101110.34;4979513;28;45265;-41
2023/06/21 05:17:34;;;;;;;;;5.50;4.00;;;;;25.61;49.89;101120.97;4980371;28;45302;-42
2023/06/21 05:19:59;;;;;;;;;3.75;3.00;;;;;25.58;49.81;101126.47;4980535;28;45253;-41
2023/06/21 05:22:25;;;;;;;;;5.00;4.00;;;;;25.58;49.94;101126.47;4979625;28;45363;-41
2023/06/21 05:24:50;;;;;;;;;6.25;4.25;;;;;25.57;49.95;101123.94;4979192;28;46465;-40
2023/06/21 05:27:15;;;;;;;;;6.50;4.25;;;;;25.53;50.03;101123.31;4983900;28;45405;-41
2023/06/21 05:29:41;;;;;;;;;5.00;4.00;;;;;25.54;49.96;101130.31;5001016;28;45542;-47
2023/06/21 05:32:07;;;;;;;;;5.75;4.00;;;;;25.49;50.31;101121.84;4998875;28;52551;-42
2023/06/21 05:34:32;;;;;;;;;3.50;3.50;;;;;25.52;50.15;101131.38;4980710;28;47288;-41
2023/06/21 05:36:57;;;;;;;;;5.75;5.75;;;;;25.49;50.23;101121.84;4979278;28;45534;-43
2023/06/21 05:39:23;;;;;;;;;6.00;5.25;;;;;25.45;50.15;101117.72;4979135;28;45961;-41
2023/06/21 05:41:48;;;;;;;;;5.00;5.00;;;;;25.44;50.08;101119.53;4982562;28;45425;-41
2023/06/21 05:44:14;;;;;;;;;6.00;4.50;;;;;25.42;49.77;101118.78;4979482;28;46591;-41
2023/06/21 05:46:40;;;;;;;;;5.00;5.00;;;;;25.41;50.46;101124.22;4982495;28;45382;-42
2023/06/21 05:49:05;;;;;;;;;3.75;3.75;;;;;25.39;49.74;101120.78;4983622;28;51584;-42
2023/06/21 05:51:31;;;;;;;;;5.00;3.75;;;;;25.37;50.27;101125.34;4981940;28;51705;-42
2023/06/21 05:53:57;;;;;;;;;5.00;5.00;;;;;25.38;49.93;101119.91;4981067;28;46567;-41
2023/06/21 05:56:26;;;;;;;;;6.25;5.00;;;;;25.35;50.17;101117.50;4985848;28;45235;-40
2023/06/21 05:58:52;;;;;;;;;6.50;4.00;;;;;25.37;50.59;101126.19;4992348;28;45435;-38
2023/06/21 06:01:17;;;;;;;;;3.00;3.00;;;;;25.35;50.42;101122.81;5000997;28;45332;-40
2023/06/21 06:03:43;;;;;;;;;4.00;4.00;;;;;25.37;50.02;101128.00;4991331;28;45304;-40
2023/06/21 06:06:08;;;;;;;;;5.00;5.00;;;;;25.37;50.10;101128.00;4993376;28;44624;-40
2023/06/21 06:08:34;;;;;;;;;4.25;4.25;;;;;25.37;50.48;101125.34;4983310;28;45351;-39
2023/06/21 06:10:59;;;;;;;;;5.00;5.00;;;;;25.37;50.75;101130.66;4977404;28;45365;-40
2023/06/21 06:13:25;;;;;;;;;5.50;5.00;;;;;25.37;50.32;101122.69;4979645;28;45733;-41
2023/06/21 06:15:50;;;;;;;;;7.00;5.25;;;;;25.36;50.61;101132.44;4981664;28;45385;-40
2023/06/21 06:18:15;;;;;;;;;5.00;4.75;;;;;25.35;50.45;101122.81;4978052;28;45234;-40
2023/06/21 06:20:43;;;;;;;;;5.75;4.75;;;;;25.38;50.70;101127.88;4978197;28;45498;-39
2023/06/21 06:23:11;;;;;;;;;4.25;4.25;;;;;25.39;50.34;101126.09;4981802;28;45586;-40
2023/06/21 06:25:37;;;;;;;;;4.25;4.25;;;;;25.37;50.32;101123.53;4983679;28;45818;-40
2023/06/21 06:28:02;;;;;;;;;10.00;6.50;;;;;25.41;50.13;101132.19;4984096;28;45310;-44
2023/06/21 06:30:28;;;;;;;;;6.00;6.00;;;;;25.41;49.98;101134.81;4992841;28;45666;-42
2023/06/21 06:32:53;;;;;;;;;6.50;4.75;;;;;25.41;49.99;101132.19;4991604;28;45240;-40
2023/06/21 06:35:18;;;;;;;;;9.75;4.75;;;;;25.41;50.03;101132.19;4986682;28;45375;-39
2023/06/21 06:37:44;;;;;;;;;5.25;5.25;;;;;25.42;49.91;101141.81;4978799;28;45928;-40
2023/06/21 06:40:10;;;;;;;;;6.00;5.00;;;;;25.39;49.72;101142.00;4992744;28;45472;-40
2023/06/21 06:42:35;;;;;;;;;6.00;4.00;;;;;25.38;49.63;101146.44;4977218;28;47088;-40
2023/06/21 06:45:00;;;;;;;;;6.00;4.50;;;;;25.32;49.90;101142.44;4977235;28;45372;-40
2023/06/21 06:47:28;;;;;;;;;6.25;5.00;;;;;25.34;50.16;101145.00;4980580;28;45434;-41
2023/06/21 06:49:53;;;;;;;;;4.50;4.50;;;;;25.33;50.05;101153.91;4977243;28;45322;-40
2023/06/21 06:52:19;;;;;;;;;4.00;4.00;;;;;25.34;50.01;101149.44;4981647;28;46508;-40
2023/06/21 06:54:44;;;;;;;;;6.25;4.25;;;;;25.33;49.90;101151.25;4980559;28;52217;-41
2023/06/21 06:57:09;;;;;;;;;4.50;4.50;;;;;25.35;50.17;101156.44;4985011;28;45234;-40
2023/06/21 06:59:35;;;;;;;;;5.00;5.00;;;;;25.37;49.93;101160.69;4986010;28;45582;-40
2023/06/21 07:02:00;;;;;;;;;6.25;6.00;;;;;25.39;50.12;101163.25;4989615;28;52914;-42
2023/06/21 07:04:28;;;;;;;;;6.00;4.50;;;;;25.40;49.69;101164.94;4996289;28;44590;-40
2023/06/21 07:06:54;;;;;;;;;5.00;5.00;;;;;25.38;49.48;101165.03;4993157;28;45626;-40
2023/06/21 07:09:19;;;;;;;;;7.00;4.75;;;;;25.39;49.02;101168.53;4993808;28;45230;-41
2023/06/21 07:11:44;;;;;;;;;4.75;4.00;;;;;25.37;49.63;101165.97;4995601;28;46547;-40
2023/06/21 07:14:10;;;;;;;;;7.00;5.00;;;;;25.37;49.22;101165.16;4992632;28;44685;-47
2023/06/21 07:16:39;;;;;;;;;4.50;4.50;;;;;25.36;49.01;101168.75;4989072;28;50463;-41
2023/06/21 07:19:05;;;;;;;;;5.00;5.00;;;;;25.35;48.82;101167.06;4992032;28;45351;-40
2023/06/21 07:21:30;;;;;;;;;4.25;3.75;;;;;25.37;49.08;101162.50;4988050;28;45407;-40
2023/06/21 07:23:55;;;;;;;;;6.75;4.00;;;;;25.38;49.20;101161.53;4983833;28;45320;-42
2023/06/21 07:26:21;;;;;;;;;5.75;5.75;;;;;25.40;49.28;101178.19;4981925;28;45445;-43
2023/06/21 07:28:46;;;;;;;;;9.00;5.50;;;;;25.36;49.36;101160.78;4979154;28;45608;-41
2023/06/21 07:31:11;;;;;;;;;5.00;5.00;;;;;25.43;48.94;101172.69;4980650;28;52515;-42
2023/06/21 07:33:37;;;;;;;;;4.25;4.25;;;;;25.44;49.45;101163.78;4977128;28;45344;-40
2023/06/21 07:36:03;;;;;;;;;7.75;7.00;;;;;25.50;48.87;101176.63;4977187;28;45439;-40
2023/06/21 07:38:28;;;;;;;;;6.00;6.00;;;;;25.51;48.51;101183.63;4979096;28;45589;-38
2023/06/21 07:40:54;;;;;;;;;6.75;6.50;;;;;25.55;48.83;101185.09;4978473;28;46181;-39
2023/06/21 07:43:20;;;;;;;;;6.75;5.25;;;;;25.55;49.03;101176.28;4981343;28;45578;-40
2023/06/21 07:45:45;;;;;;;;;6.50;6.00;;;;;25.57;48.54;101172.56;4982471;28;45796;-38
2023/06/21 07:48:11;;;;;;;;;6.75;6.00;;;;;25.58;48.79;101165.44;4994190;28;45476;-41
2023/06/21 07:50:36;;;;;;;;;8.75;5.00;;;;;25.50;48.25;101158.03;4992490;28;46216;-38
2023/06/21 07:53:03;;;;;;;;;7.75;5.50;;;;;25.55;48.27;101157.72;4983127;28;45213;-39
2023/06/21 07:55:28;;;;;;;;;6.00;6.00;;;;;25.60;48.59;101176.78;4981663;28;45383;-41
2023/06/21 07:57:53;;;;;;;;;8.25;6.75;;;;;25.62;48.73;101173.09;4980640;28;45217;-39
2023/06/21 08:00:19;;;;;;;;;5.00;4.50;;;;;25.65;48.58;101174.66;4980333;28;45229;-40
2023/06/21 08:02:45;;;;;;;;;7.75;6.25;;;;;25.67;48.61;101171.88;4980260;28;45436;-42
2023/06/21 08:05:10;;;;;;;;;9.00;5.25;;;;;25.69;48.34;101169.97;4979657;28;45338;-38
2023/06/21 08:07:36;;;;;;;;;6.75;5.00;;;;;25.72;48.23;101175.06;4978674;28;45284;-41
2023/06/21 08:10:02;;;;;;;;;5.50;5.00;;;;;25.72;48.03;101181.22;4980663;28;45459;-42
2023/06/21 08:12:27;;;;;;;;;5.00;5.00;;;;;25.75;48.45;101188.09;4983299;28;45364;-39
2023/06/21 08:14:52;;;;;;;;;7.25;6.00;;;;;25.75;48.11;101190.75;4983222;28;45820;-39
2023/06/21 08:17:18;;;;;;;;;5.00;5.00;;;;;25.75;47.82;101191.63;4984414;28;45638;-38
2023/06/21 08:19:43;;;;;;;;;6.00;5.25;;;;;25.74;47.78;101184.63;4989455;28;52758;-42
2023/06/21 08:22:08;;;;;;;;;5.00;4.50;;;;;25.78;47.79;101190.53;4990089;28;45230;-40
2023/06/21 08:24:34;;;;;;;;;8.25;6.00;;;;;25.81;47.73;101194.78;4992217;28;45866;-41
2023/06/21 08:27:00;;;;;;;;;6.50;5.25;;;;;25.80;48.16;101196.59;4982413;28;45317;-42
2023/06/21 08:29:26;;;;;;;;;8.00;6.25;;;;;25.81;47.87;101189.47;4983548;28;45906;-41
2023/06/21 08:31:51;;;;;;;;;5.25;5.25;;;;;25.83;47.83;101193.72;4988411;28;45404;-40
2023/06/21 08:34:16;;;;;;;;;7.50;6.25;;;;;25.85;47.61;101197.09;4986333;28;45614;-44
2023/06/21 17:02:59;;;;;;;;;11.00;8.00;;;;;26.72;43.29;101092.38;5577389;23;46676;-40
2023/06/21 17:05:25;;;;;;;;;9.25;8.25;;;;;26.72;43.10;101081.75;4959533;28;45320;-44
2023/06/21 17:07:50;;;;;;;;;8.50;8.25;;;;;26.73;43.45;101088.75;4959252;28;45399;-46
2023/06/21 17:10:18;;;;;;;;;8.50;8.25;;;;;26.73;43.20;101090.53;4959369;28;45393;-45
2023/06/21 17:12:44;;;;;;;;;9.25;8.25;;;;;26.75;43.16;101094.75;4959538;28;45579;-48
2023/06/21 17:15:10;;;;;;;;;10.75;9.25;;;;;26.75;43.40;101093.94;4958308;28;46494;-43
2023/06/21 17:17:36;;;;;;;;;8.25;7.25;;;;;26.75;43.35;101097.44;4957882;28;45466;-40
2023/06/21 17:20:02;;;;;;;;;10.50;8.50;;;;;26.77;43.49;101103.47;4959230;28;45421;-42
2023/06/21 17:22:27;;;;;;;;;8.25;7.75;;;;;26.76;43.38;101099.13;4959380;28;45311;-43
2023/06/21 17:24:52;;;;;;;;;10.50;8.50;;;;;26.75;43.52;101096.59;4958953;28;45355;-41
2023/06/21 17:27:18;;;;;;;;;8.50;6.50;;;;;26.76;43.22;101101.78;4958342;28;62226;-46
2023/06/21 17:29:44;;;;;;;;;7.00;7.00;;;;;26.76;43.61;101096.47;4959001;28;45235;-43
2023/06/21 17:32:09;;;;;;;;;9.25;7.75;;;;;26.73;43.46;101104.69;4959261;28;45706;-43
2023/06/21 17:34:34;;;;;;;;;10.00;7.50;;;;;26.77;43.59;101108.78;4958667;28;46531;-42
2023/06/21 17:37:00;;;;;;;;;10.75;10.25;;;;;26.74;43.59;101103.72;4958809;28;45270;-44
2023/06/21 17:39:25;;;;;;;;;34.50;25.50;;;;;26.74;43.89;101098.38;4959112;28;45289;-45
2023/06/21 17:41:51;;;;;;;;;52.75;37.75;;;;;26.77;44.11;101103.47;4959057;28;45568;-47
2023/06/21 17:44:16;;;;;;;;;45.00;35.00;;;;;26.79;44.05;101114.88;4958591;28;46371;-41
2023/06/21 17:46:41;;;;;;;;;28.25;20.00;;;;;26.80;43.80;101108.59;4958655;28;45269;-43
2023/06/21 17:49:07;;;;;;;;;19.00;17.75;;;;;26.82;43.87;101098.69;4958791;28;45193;-45
2023/06/21 17:51:34;;;;;;;;;18.50;12.50;;;;;26.84;43.76;101099.38;4958393;28;48596;-42
2023/06/21 17:54:00;;;;;;;;;13.50;12.75;;;;;26.85;43.52;101106.41;4961806;28;46639;-44
2023/06/21 17:56:25;;;;;;;;;13.00;11.50;;;;;26.87;43.59;101105.44;4977851;28;45453;-44
2023/06/21 17:58:50;;;;;;;;;13.50;12.00;;;;;26.87;43.21;101095.66;4978084;28;45340;-45
2023/06/21 18:01:16;;;;;;;;;10.00;8.50;;;;;26.88;43.56;101093.84;4978205;28;45513;-44
2023/06/21 18:03:41;;;;;;;;;9.00;8.50;;;;;26.89;43.65;101092.88;4977780;28;46707;-43
2023/06/21 18:06:06;;;;;;;;;8.75;7.25;;;;;26.89;43.19;101095.53;4977684;28;45317;-44
2023/06/21 18:08:32;;;;;;;;;6.50;6.50;;;;;26.89;43.36;101090.22;4978078;28;45307;-43
2023/06/21 18:10:58;;;;;;;;;10.00;8.75;;;;;26.90;43.40;101099.88;4978325;28;45406;-42
2023/06/21 18:13:23;;;;;;;;;8.00;8.00;;;;;26.89;43.26;101096.41;4977887;28;45956;-41
2023/06/21 18:15:48;;;;;;;;;7.75;7.25;;;;;26.87;43.12;101095.66;4977532;28;45324;-45
2023/06/21 18:18:14;;;;;;;;;8.00;7.00;;;;;26.89;43.32;101106.19;4977357;28;51576;-43
2023/06/21 18:20:39;;;;;;;;;7.75;7.75;;;;;26.89;42.81;101104.38;4977812;28;45612;-48
2023/06/21 18:23:04;;;;;;;;;10.00;8.50;;;;;26.89;42.71;101096.41;4963267;28;45740;-44
2023/06/21 18:25:30;;;;;;;;;8.00;7.00;;;;;26.89;42.75;101101.72;4957432;28;45238;-46
2023/06/21 18:27:55;;;;;;;;;4.75;4.75;;;;;26.91;42.58;101106.91;4956189;28;45288;-46
2023/06/21 18:30:21;;;;;;;;;5.75;5.00;;;;;26.91;42.73;101109.56;4957670;28;45538;-46
2023/06/21 18:32:47;;;;;;;;;5.00;5.00;;;;;26.90;42.64;101102.56;4957558;28;47725;-46
2023/06/21 18:35:12;;;;;;;;;5.50;5.00;;;;;26.91;42.34;101113.06;4957395;28;45760;-47
2023/06/21 18:37:39;;;;;;;;;6.00;6.00;;;;;26.90;41.81;101105.22;4957419;28;45612;-43
2023/06/21 18:40:06;;;;;;;;;6.00;6.00;;;;;26.91;42.14;101115.72;4957487;28;45419;-45
2023/06/21 18:42:31;;;;;;;;;6.75;6.75;;;;;26.89;42.19;101111.50;4957439;28;47732;-45
2023/06/21 18:44:57;;;;;;;;;7.00;6.00;;;;;26.91;41.99;101115.72;4955786;28;45347;-46
2023/06/21 18:47:22;;;;;;;;;8.50;5.00;;;;;26.92;42.10;101121.91;4957214;28;45427;-41
2023/06/21 18:49:48;;;;;;;;;7.25;6.00;;;;;26.91;42.08;101120.22;4957230;28;45466;-44
2023/06/21 18:52:14;;;;;;;;;6.00;6.00;;;;;26.92;41.89;101124.56;4956849;28;45410;-47
2023/06/21 18:54:41;;;;;;;;;6.50;4.75;;;;;26.89;42.00;101123.00;4956975;28;46243;-45
2023/06/21 18:57:06;;;;;;;;;6.00;6.00;;;;;26.90;42.09;101129.97;4955845;28;45512;-44
2023/06/21 18:59:32;;;;;;;;;7.00;5.50;;;;;26.91;41.84;101136.16;4958017;28;45485;-46
2023/06/21 19:01:57;;;;;;;;;7.50;6.00;;;;;26.90;41.87;101132.63;4956921;28;45662;-44
2023/06/21 19:04:23;;;;;;;;;6.25;6.00;;;;;26.83;42.25;101124.31;4956850;28;45306;-44
2023/06/21 19:06:48;;;;;;;;;6.25;6.25;;;;;26.90;41.79;101129.16;4957338;28;45366;-47
2023/06/21 19:09:13;;;;;;;;;4.75;4.75;;;;;26.91;42.00;101130.84;4956947;28;45498;-42
2023/06/21 19:11:40;;;;;;;;;4.00;4.00;;;;;26.91;41.38;101136.16;4956760;28;46405;-46
2023/06/21 19:14:07;;;;;;;;;5.25;5.00;;;;;26.90;41.52;101123.81;4954207;28;45955;-46
2023/06/21 19:16:32;;;;;;;;;4.00;4.00;;;;;26.89;41.46;101138.09;4957150;28;45476;-48
2023/06/21 19:18:58;;;;;;;;;6.00;4.50;;;;;26.87;41.67;101130.25;4955582;28;45528;-44
2023/06/21 19:21:23;;;;;;;;;4.50;4.50;;;;;26.87;41.73;101138.22;4956545;28;46458;-47
2023/06/21 19:23:48;;;;;;;;;4.50;4.00;;;;;26.87;41.70;101135.56;4956643;28;45457;-46
2023/06/21 19:26:14;;;;;;;;;5.50;5.25;;;;;26.86;41.76;101136.53;4955479;28;45389;-47
2023/06/21 19:28:39;;;;;;;;;3.75;3.75;;;;;26.87;41.77;101135.56;4956888;28;45779;-47
2023/06/21 19:31:05;;;;;;;;;4.25;4.25;;;;;26.87;41.78;101129.38;4957082;28;46200;-46
2023/06/21 19:33:30;;;;;;;;;6.00;4.00;;;;;26.84;41.86;101133.13;4955649;28;45402;-52
2023/06/21 19:35:55;;;;;;;;;3.75;3.50;;;;;26.85;41.72;101133.00;4956391;28;45300;-48
2023/06/21 19:38:21;;;;;;;;;5.00;4.00;;;;;26.84;41.77;101131.31;4959042;28;45313;-44
2023/06/21 19:40:46;;;;;;;;;5.50;5.00;;;;;26.83;41.87;101134.97;4959910;28;45376;-45
2023/06/21 19:43:12;;;;;;;;;6.25;6.25;;;;;26.83;42.11;101134.97;4959744;28;45459;-46
2023/06/21 19:45:38;;;;;;;;;5.25;5.00;;;;;26.81;41.97;101134.22;4959043;28;45384;-44